createdAt,value
2022-08-26T00:00:24.901Z,1010.23
2022-08-26T00:01:29.704Z,1010.22
2022-08-26T00:02:24.948Z,1010.23
2022-08-26T00:03:24.898Z,1010.23
2022-08-26T00:04:26.071Z,1010.18
2022-08-26T00:05:24.847Z,1010.24
2022-08-26T00:06:24.834Z,1010.22
2022-08-26T00:07:24.821Z,1010.18
2022-08-26T00:08:24.833Z,1010.20
2022-08-26T00:09:25.058Z,1010.21
2022-08-26T00:10:25.844Z,1010.18
2022-08-26T00:11:26.967Z,1010.14
2022-08-26T00:12:36.059Z,1010.15
2022-08-26T00:13:26.537Z,1010.15
2022-08-26T00:14:53.773Z,1010.17
2022-08-26T00:15:24.738Z,1010.16
2022-08-26T00:16:24.795Z,1010.19
2022-08-26T00:17:24.717Z,1010.16
2022-08-26T00:18:24.798Z,1010.16
2022-08-26T00:19:24.717Z,1010.18
2022-08-26T00:20:24.682Z,1010.11
2022-08-26T00:21:24.839Z,1010.09
2022-08-26T00:22:24.679Z,1010.11
2022-08-26T00:23:24.708Z,1010.08
2022-08-26T00:24:24.650Z,1010.07
2022-08-26T00:25:24.870Z,1010.11
2022-08-26T00:26:24.621Z,1010.08
2022-08-26T00:27:24.666Z,1010.06
2022-08-26T00:28:24.622Z,1010.08
2022-08-26T00:29:24.593Z,1010.08
2022-08-26T00:30:24.584Z,1010.09
2022-08-26T00:31:24.622Z,1010.05
2022-08-26T00:32:24.558Z,1010.10
2022-08-26T00:33:24.564Z,1010.09
2022-08-26T00:34:24.540Z,1010.13
2022-08-26T00:35:24.530Z,1010.09
2022-08-26T00:36:24.524Z,1010.08
2022-08-26T00:37:24.511Z,1010.05
2022-08-26T00:38:24.560Z,1010.03
2022-08-26T00:39:24.482Z,1010.05
2022-08-26T00:40:24.574Z,1010.04
2022-08-26T00:41:24.464Z,1010.05
2022-08-26T00:42:24.501Z,1010.03
2022-08-26T00:43:24.456Z,1010.04
2022-08-26T00:44:24.423Z,1010.05
2022-08-26T00:45:24.478Z,1010.03
2022-08-26T00:46:24.405Z,1010.04
2022-08-26T00:47:24.402Z,1010.02
2022-08-26T00:48:24.424Z,1010.00
2022-08-26T00:49:24.380Z,1009.96
2022-08-26T00:50:24.378Z,1009.99
2022-08-26T00:51:24.342Z,1009.98
2022-08-26T00:52:25.334Z,1009.98
2022-08-26T00:53:27.860Z,1009.97
2022-08-26T00:54:24.311Z,1009.93
2022-08-26T00:55:24.383Z,1009.97
2022-08-26T00:56:24.291Z,1009.92
2022-08-26T00:57:24.281Z,1009.95
2022-08-26T00:58:25.098Z,1009.94
2022-08-26T00:59:24.269Z,1009.94
2022-08-26T01:00:24.243Z,1009.93
2022-08-26T01:01:24.262Z,1009.95
2022-08-26T01:02:24.259Z,1009.91
2022-08-26T01:03:24.259Z,1009.92
2022-08-26T01:04:24.205Z,1009.93
2022-08-26T01:05:24.193Z,1009.93
2022-08-26T01:06:24.194Z,1009.93
2022-08-26T01:07:24.180Z,1009.96
2022-08-26T01:08:24.371Z,1009.99
2022-08-26T01:09:24.175Z,1010.02
2022-08-26T01:10:24.140Z,1010.00
2022-08-26T01:11:24.134Z,1009.99
2022-08-26T01:12:25.116Z,1009.94
2022-08-26T01:13:24.108Z,1009.95
2022-08-26T01:14:24.136Z,1009.94
2022-08-26T01:15:24.091Z,1009.95
2022-08-26T01:16:24.090Z,1009.96
2022-08-26T01:17:24.062Z,1009.93
2022-08-26T01:18:24.076Z,1009.98
2022-08-26T01:19:24.066Z,1009.95
2022-08-26T01:20:24.035Z,1010.03
2022-08-26T01:21:24.018Z,1009.98
2022-08-26T01:22:26.720Z,1009.98
2022-08-26T01:23:24.002Z,1009.99
2022-08-26T01:24:24.008Z,1009.99
2022-08-26T01:25:23.968Z,1009.98
2022-08-26T01:26:23.963Z,1009.98
2022-08-26T01:27:23.953Z,1009.96
2022-08-26T01:28:23.946Z,1009.95
2022-08-26T01:29:40.081Z,1009.96
2022-08-26T01:30:23.918Z,1009.95
2022-08-26T01:31:23.971Z,1009.94
2022-08-26T01:32:23.908Z,1009.98
2022-08-26T01:33:24.560Z,1009.94
2022-08-26T01:34:26.292Z,1009.92
2022-08-26T01:35:23.866Z,1009.92
2022-08-26T01:36:23.857Z,1009.91
2022-08-26T01:37:23.837Z,1009.90
2022-08-26T01:38:23.855Z,1009.92
2022-08-26T01:39:23.850Z,1009.88
2022-08-26T01:40:23.940Z,1009.88
2022-08-26T01:41:27.172Z,1009.88
2022-08-26T01:42:24.809Z,1009.86
2022-08-26T01:43:23.776Z,1009.82
2022-08-26T01:44:23.764Z,1009.87
2022-08-26T01:45:23.792Z,1009.88
2022-08-26T01:46:23.747Z,1009.85
2022-08-26T01:47:23.735Z,1009.90
2022-08-26T01:48:23.728Z,1009.88
2022-08-26T01:49:23.708Z,1009.88
2022-08-26T01:50:27.705Z,1009.85
2022-08-26T01:51:24.713Z,1009.83
2022-08-26T01:52:23.676Z,1009.84
2022-08-26T01:53:23.676Z,1009.80
2022-08-26T01:54:23.679Z,1009.75
2022-08-26T01:55:32.447Z,1009.78
2022-08-26T01:56:24.819Z,1009.74
2022-08-26T01:57:24.623Z,1009.75
2022-08-26T01:58:23.614Z,1009.76
2022-08-26T01:59:23.628Z,1009.75
2022-08-26T02:00:23.597Z,1009.76
2022-08-26T02:01:23.665Z,1009.78
2022-08-26T02:02:24.665Z,1009.83
2022-08-26T02:03:23.561Z,1009.82
2022-08-26T02:04:23.657Z,1009.79
2022-08-26T02:05:23.548Z,1009.78
2022-08-26T02:06:23.529Z,1009.82
2022-08-26T02:07:23.519Z,1009.79
2022-08-26T02:08:24.735Z,1009.78
2022-08-26T02:09:23.517Z,1009.84
2022-08-26T02:10:23.481Z,1009.82
2022-08-26T02:11:23.465Z,1009.79
2022-08-26T02:12:23.458Z,1009.80
2022-08-26T02:13:23.454Z,1009.82
2022-08-26T02:14:23.588Z,1009.78
2022-08-26T02:15:23.423Z,1009.79
2022-08-26T02:16:23.496Z,1009.80
2022-08-26T02:17:23.398Z,1009.78
2022-08-26T02:18:23.556Z,1009.75
2022-08-26T02:19:23.499Z,1009.75
2022-08-26T02:20:23.379Z,1009.79
2022-08-26T02:21:25.053Z,1009.77
2022-08-26T02:22:24.598Z,1009.73
2022-08-26T02:23:23.954Z,1009.78
2022-08-26T02:24:23.375Z,1009.73
2022-08-26T02:25:23.338Z,1009.78
2022-08-26T02:26:23.306Z,1009.79
2022-08-26T02:27:23.292Z,1009.76
2022-08-26T02:28:26.694Z,1009.76
2022-08-26T02:29:23.274Z,1009.77
2022-08-26T02:30:23.301Z,1009.75
2022-08-26T02:31:23.272Z,1009.76
2022-08-26T02:32:23.240Z,1009.75
2022-08-26T02:33:23.233Z,1009.76
2022-08-26T02:34:23.238Z,1009.73
2022-08-26T02:35:23.260Z,1009.78
2022-08-26T02:36:23.197Z,1009.77
2022-08-26T02:37:23.181Z,1009.76
2022-08-26T02:38:24.135Z,1009.70
2022-08-26T02:39:23.397Z,1009.71
2022-08-26T02:40:23.228Z,1009.72
2022-08-26T02:41:23.169Z,1009.67
2022-08-26T02:42:23.135Z,1009.72
2022-08-26T02:43:31.476Z,1009.67
2022-08-26T02:44:24.134Z,1009.70
2022-08-26T02:45:26.131Z,1009.71
2022-08-26T02:46:29.717Z,1009.67
2022-08-26T02:47:24.916Z,1009.70
2022-08-26T02:48:23.067Z,1009.66
2022-08-26T02:49:23.070Z,1009.67
2022-08-26T02:50:23.038Z,1009.66
2022-08-26T02:51:23.054Z,1009.70
2022-08-26T02:52:23.628Z,1009.66
2022-08-26T02:53:25.349Z,1009.64
2022-08-26T02:54:23.015Z,1009.63
2022-08-26T02:55:24.680Z,1009.60
2022-08-26T02:56:23.110Z,1009.62
2022-08-26T02:57:22.961Z,1009.61
2022-08-26T02:58:22.955Z,1009.58
2022-08-26T02:59:24.493Z,1009.60
2022-08-26T03:00:22.984Z,1009.57
2022-08-26T03:01:22.997Z,1009.59
2022-08-26T03:02:22.968Z,1009.60
2022-08-26T03:03:23.752Z,1009.59
2022-08-26T03:04:22.927Z,1009.63
2022-08-26T03:05:24.074Z,1009.60
2022-08-26T03:06:22.884Z,1009.60
2022-08-26T03:07:22.861Z,1009.60
2022-08-26T03:08:22.848Z,1009.60
2022-08-26T03:09:22.840Z,1009.59
2022-08-26T03:10:22.846Z,1009.56
2022-08-26T03:11:22.811Z,1009.58
2022-08-26T03:12:22.805Z,1009.58
2022-08-26T03:13:22.813Z,1009.54
2022-08-26T03:14:22.800Z,1009.54
2022-08-26T03:15:22.819Z,1009.51
2022-08-26T03:16:22.839Z,1009.52
2022-08-26T03:17:22.753Z,1009.53
2022-08-26T03:18:22.736Z,1009.54
2022-08-26T03:19:22.730Z,1009.53
2022-08-26T03:20:22.735Z,1009.50
2022-08-26T03:21:22.704Z,1009.51
2022-08-26T03:22:22.697Z,1009.48
2022-08-26T03:23:22.684Z,1009.47
2022-08-26T03:24:22.871Z,1009.48
2022-08-26T03:25:22.678Z,1009.46
2022-08-26T03:26:22.653Z,1009.47
2022-08-26T03:27:22.658Z,1009.45
2022-08-26T03:28:22.922Z,1009.48
2022-08-26T03:29:22.618Z,1009.46
2022-08-26T03:30:22.634Z,1009.46
2022-08-26T03:31:24.498Z,1009.49
2022-08-26T03:32:22.589Z,1009.48
2022-08-26T03:33:22.573Z,1009.51
2022-08-26T03:34:22.570Z,1009.50
2022-08-26T03:35:26.306Z,1009.46
2022-08-26T03:36:22.540Z,1009.41
2022-08-26T03:37:22.533Z,1009.45
2022-08-26T03:38:22.522Z,1009.45
2022-08-26T03:39:22.530Z,1009.46
2022-08-26T03:40:22.558Z,1009.48
2022-08-26T03:41:22.488Z,1009.47
2022-08-26T03:42:22.476Z,1009.41
2022-08-26T03:43:22.504Z,1009.46
2022-08-26T03:44:22.489Z,1009.43
2022-08-26T03:45:22.765Z,1009.44
2022-08-26T03:46:22.475Z,1009.44
2022-08-26T03:47:22.421Z,1009.40
2022-08-26T03:48:22.408Z,1009.40
2022-08-26T03:49:22.396Z,1009.39
2022-08-26T03:50:22.869Z,1009.42
2022-08-26T03:51:22.386Z,1009.42
2022-08-26T03:52:22.370Z,1009.40
2022-08-26T03:53:22.354Z,1009.40
2022-08-26T03:54:22.348Z,1009.39
2022-08-26T03:55:23.782Z,1009.40
2022-08-26T03:56:22.321Z,1009.34
2022-08-26T03:57:22.314Z,1009.34
2022-08-26T03:58:22.587Z,1009.34
2022-08-26T03:59:22.295Z,1009.32
2022-08-26T04:00:22.284Z,1009.32
2022-08-26T04:01:28.352Z,1009.33
2022-08-26T04:02:22.380Z,1009.37
2022-08-26T04:03:22.283Z,1009.32
2022-08-26T04:04:22.719Z,1009.34
2022-08-26T04:05:22.272Z,1009.31
2022-08-26T04:06:22.218Z,1009.30
2022-08-26T04:07:22.206Z,1009.32
2022-08-26T04:08:22.193Z,1009.32
2022-08-26T04:09:22.183Z,1009.30
2022-08-26T04:10:29.037Z,1009.31
2022-08-26T04:11:23.157Z,1009.30
2022-08-26T04:12:22.154Z,1009.34
2022-08-26T04:13:22.146Z,1009.30
2022-08-26T04:14:22.132Z,1009.31
2022-08-26T04:15:22.120Z,1009.33
2022-08-26T04:16:22.167Z,1009.35
2022-08-26T04:17:24.979Z,1009.34
2022-08-26T04:18:22.118Z,1009.39
2022-08-26T04:19:22.119Z,1009.35
2022-08-26T04:20:22.072Z,1009.36
2022-08-26T04:21:22.053Z,1009.38
2022-08-26T04:22:25.005Z,1009.39
2022-08-26T04:23:22.030Z,1009.38
2022-08-26T04:24:22.015Z,1009.34
2022-08-26T04:25:22.037Z,1009.37
2022-08-26T04:26:22.002Z,1009.38
2022-08-26T04:27:21.985Z,1009.36
2022-08-26T04:28:21.994Z,1009.35
2022-08-26T04:29:21.966Z,1009.32
2022-08-26T04:30:22.030Z,1009.32
2022-08-26T04:31:22.049Z,1009.30
2022-08-26T04:32:21.933Z,1009.34
2022-08-26T04:33:32.398Z,1009.28
2022-08-26T04:34:23.080Z,1009.30
2022-08-26T04:35:25.596Z,1009.32
2022-08-26T04:36:21.894Z,1009.31
2022-08-26T04:37:21.878Z,1009.30
2022-08-26T04:38:21.868Z,1009.30
2022-08-26T04:39:21.858Z,1009.29
2022-08-26T04:40:21.911Z,1009.30
2022-08-26T04:41:21.862Z,1009.27
2022-08-26T04:42:23.301Z,1009.31
2022-08-26T04:43:21.811Z,1009.31
2022-08-26T04:44:21.824Z,1009.28
2022-08-26T04:45:22.866Z,1009.33
2022-08-26T04:46:21.887Z,1009.30
2022-08-26T04:47:21.872Z,1009.31
2022-08-26T04:48:21.788Z,1009.30
2022-08-26T04:49:21.753Z,1009.28
2022-08-26T04:50:21.739Z,1009.21
2022-08-26T04:51:22.215Z,1009.24
2022-08-26T04:52:21.724Z,1009.24
2022-08-26T04:53:21.782Z,1009.24
2022-08-26T04:54:21.714Z,1009.26
2022-08-26T04:55:21.708Z,1009.28
2022-08-26T04:56:22.674Z,1009.24
2022-08-26T04:57:21.667Z,1009.21
2022-08-26T04:58:21.658Z,1009.20
2022-08-26T04:59:21.658Z,1009.23
2022-08-26T05:00:21.634Z,1009.21
2022-08-26T05:01:21.714Z,1009.23
2022-08-26T05:02:21.637Z,1009.20
2022-08-26T05:03:21.599Z,1009.21
2022-08-26T05:04:22.277Z,1009.24
2022-08-26T05:05:21.570Z,1009.26
2022-08-26T05:06:22.046Z,1009.27
2022-08-26T05:07:21.570Z,1009.27
2022-08-26T05:08:23.142Z,1009.29
2022-08-26T05:09:21.533Z,1009.26
2022-08-26T05:10:22.133Z,1009.26
2022-08-26T05:11:21.507Z,1009.27
2022-08-26T05:12:21.513Z,1009.27
2022-08-26T05:13:21.486Z,1009.33
2022-08-26T05:14:21.496Z,1009.31
2022-08-26T05:15:21.466Z,1009.32
2022-08-26T05:16:22.789Z,1009.32
2022-08-26T05:17:21.444Z,1009.33
2022-08-26T05:18:21.442Z,1009.35
2022-08-26T05:19:21.427Z,1009.39
2022-08-26T05:20:25.618Z,1009.41
2022-08-26T05:21:21.402Z,1009.40
2022-08-26T05:22:21.433Z,1009.39
2022-08-26T05:23:21.557Z,1009.40
2022-08-26T05:24:21.378Z,1009.45
2022-08-26T05:25:21.382Z,1009.42
2022-08-26T05:26:22.921Z,1009.42
2022-08-26T05:27:21.600Z,1009.45
2022-08-26T05:28:21.336Z,1009.46
2022-08-26T05:29:21.319Z,1009.48
2022-08-26T05:30:21.299Z,1009.51
2022-08-26T05:31:21.348Z,1009.47
2022-08-26T05:32:21.297Z,1009.48
2022-08-26T05:33:21.302Z,1009.48
2022-08-26T05:34:21.268Z,1009.52
2022-08-26T05:35:21.245Z,1009.49
2022-08-26T05:36:21.242Z,1009.51
2022-08-26T05:37:21.249Z,1009.53
2022-08-26T05:38:21.213Z,1009.49
2022-08-26T05:39:21.204Z,1009.53
2022-08-26T05:40:22.220Z,1009.52
2022-08-26T05:41:21.182Z,1009.49
2022-08-26T05:42:21.190Z,1009.45
2022-08-26T05:43:21.155Z,1009.44
2022-08-26T05:44:21.143Z,1009.43
2022-08-26T05:45:21.136Z,1009.42
2022-08-26T05:46:21.208Z,1009.43
2022-08-26T05:47:21.138Z,1009.44
2022-08-26T05:48:22.520Z,1009.41
2022-08-26T05:49:21.098Z,1009.41
2022-08-26T05:50:22.372Z,1009.42
2022-08-26T05:51:25.396Z,1009.44
2022-08-26T05:52:22.079Z,1009.44
2022-08-26T05:53:21.051Z,1009.47
2022-08-26T05:54:21.964Z,1009.48
2022-08-26T05:55:21.030Z,1009.50
2022-08-26T05:56:21.040Z,1009.50
2022-08-26T05:57:21.059Z,1009.50
2022-08-26T05:58:20.996Z,1009.52
2022-08-26T05:59:24.226Z,1009.53
2022-08-26T06:00:20.976Z,1009.49
2022-08-26T06:01:21.483Z,1009.45
2022-08-26T06:02:21.405Z,1009.48
2022-08-26T06:03:21.022Z,1009.47
2022-08-26T06:04:20.926Z,1009.50
2022-08-26T06:05:20.913Z,1009.46
2022-08-26T06:06:27.294Z,1009.50
2022-08-26T06:07:21.913Z,1009.46
2022-08-26T06:08:20.890Z,1009.49
2022-08-26T06:09:20.871Z,1009.44
2022-08-26T06:10:32.039Z,1009.43
2022-08-26T06:11:21.842Z,1009.39
2022-08-26T06:12:20.891Z,1009.46
2022-08-26T06:13:20.823Z,1009.40
2022-08-26T06:14:28.654Z,1009.39
2022-08-26T06:15:20.802Z,1009.44
2022-08-26T06:16:20.895Z,1009.47
2022-08-26T06:17:20.775Z,1009.40
2022-08-26T06:18:21.140Z,1009.37
2022-08-26T06:19:20.756Z,1009.40
2022-08-26T06:20:20.741Z,1009.37
2022-08-26T06:21:20.731Z,1009.42
2022-08-26T06:22:23.543Z,1009.45
2022-08-26T06:23:20.715Z,1009.48
2022-08-26T06:24:20.994Z,1009.45
2022-08-26T06:25:21.693Z,1009.49
2022-08-26T06:26:20.688Z,1009.48
2022-08-26T06:27:20.670Z,1009.42
2022-08-26T06:28:20.671Z,1009.41
2022-08-26T06:29:24.219Z,1009.41
2022-08-26T06:30:20.636Z,1009.46
2022-08-26T06:31:20.703Z,1009.38
2022-08-26T06:32:20.616Z,1009.41
2022-08-26T06:33:20.624Z,1009.43
2022-08-26T06:34:20.590Z,1009.36
2022-08-26T06:35:20.603Z,1009.38
2022-08-26T06:36:20.577Z,1009.37
2022-08-26T06:37:20.575Z,1009.37
2022-08-26T06:38:20.549Z,1009.41
2022-08-26T06:39:20.848Z,1009.35
2022-08-26T06:40:20.627Z,1009.41
2022-08-26T06:41:20.519Z,1009.41
2022-08-26T06:42:20.763Z,1009.40
2022-08-26T06:43:20.501Z,1009.39
2022-08-26T06:44:20.951Z,1009.39
2022-08-26T06:45:20.474Z,1009.40
2022-08-26T06:46:20.484Z,1009.45
2022-08-26T06:47:22.749Z,1009.42
2022-08-26T06:48:20.456Z,1009.44
2022-08-26T06:49:25.645Z,1009.45
2022-08-26T06:50:21.414Z,1009.41
2022-08-26T06:51:20.412Z,1009.40
2022-08-26T06:52:24.563Z,1009.40
2022-08-26T06:53:20.408Z,1009.41
2022-08-26T06:54:20.377Z,1009.37
2022-08-26T06:55:20.367Z,1009.43
2022-08-26T06:56:21.511Z,1009.46
2022-08-26T06:57:20.346Z,1009.42
2022-08-26T06:58:20.357Z,1009.41
2022-08-26T06:59:20.325Z,1009.42
2022-08-26T07:00:20.311Z,1009.48
2022-08-26T07:01:20.369Z,1009.50
2022-08-26T07:02:20.830Z,1009.45
2022-08-26T07:03:20.292Z,1009.47
2022-08-26T07:04:22.378Z,1009.41
2022-08-26T07:05:20.266Z,1009.40
2022-08-26T07:06:20.257Z,1009.43
2022-08-26T07:07:21.990Z,1009.41
2022-08-26T07:08:20.247Z,1009.44
2022-08-26T07:09:20.218Z,1009.44
2022-08-26T07:10:20.205Z,1009.36
2022-08-26T07:11:20.748Z,1009.35
2022-08-26T07:12:20.202Z,1009.38
2022-08-26T07:13:30.920Z,1009.36
2022-08-26T07:14:21.899Z,1009.41
2022-08-26T07:15:20.157Z,1009.35
2022-08-26T07:16:21.206Z,1009.35
2022-08-26T07:17:20.510Z,1009.39
2022-08-26T07:18:20.140Z,1009.34
2022-08-26T07:19:30.587Z,1009.41
2022-08-26T07:20:21.099Z,1009.36
2022-08-26T07:21:20.092Z,1009.36
2022-08-26T07:22:20.108Z,1009.35
2022-08-26T07:23:20.279Z,1009.36
2022-08-26T07:24:20.753Z,1009.38
2022-08-26T07:25:20.051Z,1009.37
2022-08-26T07:26:20.038Z,1009.36
2022-08-26T07:27:20.033Z,1009.38
2022-08-26T07:28:21.178Z,1009.36
2022-08-26T07:29:20.048Z,1009.34
2022-08-26T07:30:20.012Z,1009.30
2022-08-26T07:31:20.061Z,1009.31
2022-08-26T07:32:19.977Z,1009.30
2022-08-26T07:33:19.973Z,1009.35
2022-08-26T07:34:19.983Z,1009.38
2022-08-26T07:35:19.947Z,1009.42
2022-08-26T07:36:19.945Z,1009.36
2022-08-26T07:37:20.038Z,1009.37
2022-08-26T07:38:19.918Z,1009.41
2022-08-26T07:39:20.015Z,1009.34
2022-08-26T07:40:19.943Z,1009.34
2022-08-26T07:41:20.008Z,1009.31
2022-08-26T07:42:19.878Z,1009.34
2022-08-26T07:43:19.886Z,1009.37
2022-08-26T07:44:19.870Z,1009.36
2022-08-26T07:45:21.121Z,1009.35
2022-08-26T07:46:20.757Z,1009.41
2022-08-26T07:47:24.735Z,1009.34
2022-08-26T07:48:21.441Z,1009.33
2022-08-26T07:49:19.942Z,1009.35
2022-08-26T07:50:19.836Z,1009.31
2022-08-26T07:51:21.181Z,1009.33
2022-08-26T07:52:21.664Z,1009.38
2022-08-26T07:53:20.793Z,1009.41
2022-08-26T07:54:19.758Z,1009.38
2022-08-26T07:55:19.746Z,1009.37
2022-08-26T07:56:19.734Z,1009.39
2022-08-26T07:57:19.795Z,1009.40
2022-08-26T07:58:19.827Z,1009.43
2022-08-26T07:59:19.751Z,1009.40
2022-08-26T08:00:19.783Z,1009.38
2022-08-26T08:01:19.759Z,1009.40
2022-08-26T08:02:19.679Z,1009.33
2022-08-26T08:03:28.180Z,1009.29
2022-08-26T08:04:25.511Z,1009.35
2022-08-26T08:05:20.644Z,1009.42
2022-08-26T08:06:19.657Z,1009.36
2022-08-26T08:07:19.635Z,1009.32
2022-08-26T08:08:27.145Z,1009.22
2022-08-26T08:09:20.631Z,1009.21
2022-08-26T08:10:20.842Z,1009.18
2022-08-26T08:11:19.587Z,1009.18
2022-08-26T08:12:19.589Z,1009.22
2022-08-26T08:13:19.574Z,1009.25
2022-08-26T08:14:22.202Z,1009.23
2022-08-26T08:15:20.275Z,1009.24
2022-08-26T08:16:19.612Z,1009.18
2022-08-26T08:17:19.557Z,1009.29
2022-08-26T08:18:20.587Z,1009.15
2022-08-26T08:19:19.537Z,1009.12
2022-08-26T08:20:19.646Z,1009.09
2022-08-26T08:21:21.723Z,1009.19
2022-08-26T08:22:19.822Z,1009.31
2022-08-26T08:23:19.469Z,1009.25
2022-08-26T08:24:19.458Z,1009.23
2022-08-26T08:25:19.450Z,1009.29
2022-08-26T08:26:19.456Z,1009.29
2022-08-26T08:27:23.546Z,1009.32
2022-08-26T08:28:19.416Z,1009.37
2022-08-26T08:29:19.408Z,1009.31
2022-08-26T08:30:22.617Z,1009.26
2022-08-26T08:31:33.239Z,1009.40
2022-08-26T08:32:20.378Z,1009.36
2022-08-26T08:33:19.370Z,1009.37
2022-08-26T08:34:19.359Z,1009.37
2022-08-26T08:35:19.367Z,1009.41
2022-08-26T08:36:20.496Z,1009.33
2022-08-26T08:37:19.361Z,1009.36
2022-08-26T08:38:19.315Z,1009.43
2022-08-26T08:39:19.331Z,1009.39
2022-08-26T08:40:19.381Z,1009.42
2022-08-26T08:41:19.300Z,1009.36
2022-08-26T08:42:19.279Z,1009.39
2022-08-26T08:43:19.270Z,1009.07
2022-08-26T08:44:19.322Z,1009.15
2022-08-26T08:45:19.251Z,1009.07
2022-08-26T08:46:19.259Z,1009.00
2022-08-26T08:47:19.257Z,1008.93
2022-08-26T08:48:19.221Z,1009.25
2022-08-26T08:49:19.370Z,1009.02
2022-08-26T08:50:19.215Z,1009.04
2022-08-26T08:51:19.196Z,1008.96
2022-08-26T08:52:19.181Z,1008.96
2022-08-26T08:53:19.218Z,1009.18
2022-08-26T08:54:19.161Z,1009.04
2022-08-26T08:55:19.265Z,1009.04
2022-08-26T08:56:19.140Z,1008.91
2022-08-26T08:57:19.134Z,1008.86
2022-08-26T08:58:19.748Z,1008.91
2022-08-26T08:59:19.115Z,1008.99
2022-08-26T09:00:19.193Z,1008.81
2022-08-26T09:01:19.110Z,1008.77
2022-08-26T09:02:19.553Z,1008.82
2022-08-26T09:03:19.076Z,1008.80
2022-08-26T09:04:19.083Z,1008.78
2022-08-26T09:05:19.057Z,1008.82
2022-08-26T09:06:19.328Z,1009.11
2022-08-26T09:07:19.038Z,1008.93
2022-08-26T09:08:19.917Z,1008.83
2022-08-26T09:09:19.053Z,1008.81
2022-08-26T09:10:19.006Z,1008.79
2022-08-26T09:11:19.018Z,1008.96
2022-08-26T09:12:18.990Z,1008.88
2022-08-26T09:13:25.162Z,1008.91
2022-08-26T09:14:19.966Z,1009.22
2022-08-26T09:15:18.961Z,1009.18
2022-08-26T09:16:20.303Z,1008.98
2022-08-26T09:17:18.938Z,1008.88
2022-08-26T09:18:18.938Z,1008.86
2022-08-26T09:19:19.316Z,1008.89
2022-08-26T09:20:18.907Z,1008.82
2022-08-26T09:21:19.801Z,1008.83
2022-08-26T09:22:18.989Z,1008.81
2022-08-26T09:23:18.877Z,1008.84
2022-08-26T09:24:18.872Z,1008.81
2022-08-26T09:25:19.149Z,1009.11
2022-08-26T09:26:18.865Z,1009.00
2022-08-26T09:27:18.839Z,1008.90
2022-08-26T09:28:18.837Z,1009.13
2022-08-26T09:30:18.806Z,1008.86
2022-08-26T09:31:19.807Z,1008.82
2022-08-26T09:32:18.794Z,1008.83
2022-08-26T09:33:18.789Z,1008.78
2022-08-26T09:34:19.042Z,1008.82
2022-08-26T09:35:18.871Z,1008.83
2022-08-26T09:36:18.777Z,1008.77
2022-08-26T09:37:18.742Z,1008.87
2022-08-26T09:38:18.733Z,1008.81
2022-08-26T09:39:18.721Z,1008.96
2022-08-26T09:40:18.763Z,1008.94
2022-08-26T09:41:18.718Z,1009.05
2022-08-26T09:42:19.311Z,1009.19
2022-08-26T09:43:22.155Z,1009.04
2022-08-26T09:44:18.675Z,1008.81
2022-08-26T09:45:18.668Z,1008.91
2022-08-26T09:46:18.849Z,1008.82
2022-08-26T09:47:18.647Z,1008.81
2022-08-26T09:48:18.659Z,1008.78
2022-08-26T09:49:18.634Z,1008.75
2022-08-26T09:50:18.617Z,1008.71
2022-08-26T09:51:18.607Z,1008.74
2022-08-26T09:52:19.772Z,1008.67
2022-08-26T09:53:20.965Z,1008.72
2022-08-26T09:54:20.667Z,1008.69
2022-08-26T09:55:18.574Z,1008.66
2022-08-26T09:56:18.586Z,1008.65
2022-08-26T09:57:18.646Z,1008.77
2022-08-26T09:58:18.556Z,1008.76
2022-08-26T09:59:18.958Z,1008.69
2022-08-26T10:00:18.523Z,1008.65
2022-08-26T10:01:19.508Z,1008.65
2022-08-26T10:02:18.507Z,1008.52
2022-08-26T10:03:18.623Z,1008.44
2022-08-26T10:04:18.522Z,1008.44
2022-08-26T10:05:18.475Z,1008.64
2022-08-26T10:06:20.915Z,1008.68
2022-08-26T10:07:18.462Z,1008.59
2022-08-26T10:08:18.446Z,1008.51
2022-08-26T10:09:18.459Z,1008.43
2022-08-26T10:10:18.433Z,1008.71
2022-08-26T10:11:18.420Z,1008.48
2022-08-26T10:12:18.442Z,1008.36
2022-08-26T10:13:18.398Z,1008.37
2022-08-26T10:14:18.848Z,1008.35
2022-08-26T10:15:18.378Z,1008.34
2022-08-26T10:16:18.442Z,1008.38
2022-08-26T10:17:18.359Z,1008.42
2022-08-26T10:18:18.357Z,1008.32
2022-08-26T10:19:18.366Z,1008.32
2022-08-26T10:20:22.590Z,1008.28
2022-08-26T10:21:19.327Z,1008.31
2022-08-26T10:22:18.424Z,1008.36
2022-08-26T10:23:18.322Z,1008.40
2022-08-26T10:24:18.322Z,1008.39
2022-08-26T10:25:18.309Z,1008.28
2022-08-26T10:26:18.285Z,1008.25
2022-08-26T10:27:18.271Z,1008.23
2022-08-26T10:28:18.267Z,1008.25
2022-08-26T10:29:18.271Z,1008.17
2022-08-26T10:30:18.245Z,1008.20
2022-08-26T10:31:18.311Z,1008.27
2022-08-26T10:32:18.318Z,1008.19
2022-08-26T10:33:18.327Z,1008.17
2022-08-26T10:34:18.230Z,1008.17
2022-08-26T10:35:18.203Z,1008.17
2022-08-26T10:36:20.293Z,1008.18
2022-08-26T10:37:18.328Z,1008.19
2022-08-26T10:38:18.251Z,1008.08
2022-08-26T10:39:18.277Z,1008.05
2022-08-26T10:40:18.344Z,1008.00
2022-08-26T10:41:18.195Z,1008.10
2022-08-26T10:42:18.140Z,1008.06
2022-08-26T10:43:18.136Z,1007.84
2022-08-26T10:44:18.150Z,1007.68
2022-08-26T10:45:18.111Z,1007.54
2022-08-26T10:46:18.208Z,1007.64
2022-08-26T10:47:18.104Z,1008.04
2022-08-26T10:48:18.085Z,1008.04
2022-08-26T10:49:18.100Z,1008.00
2022-08-26T10:50:18.323Z,1007.50
2022-08-26T10:51:18.059Z,1007.50
2022-08-26T10:52:18.053Z,1007.54
2022-08-26T10:53:18.040Z,1007.45
2022-08-26T10:54:18.033Z,1007.41
2022-08-26T10:55:18.049Z,1007.45
2022-08-26T10:56:19.423Z,1007.43
2022-08-26T10:57:18.005Z,1007.37
2022-08-26T10:58:26.462Z,1007.48
2022-08-26T10:59:18.982Z,1007.64
2022-08-26T11:00:18.038Z,1007.43
2022-08-26T11:01:18.002Z,1007.43
2022-08-26T11:02:24.201Z,1007.22
2022-08-26T11:03:21.979Z,1007.18
2022-08-26T11:04:18.031Z,1007.14
2022-08-26T11:05:17.963Z,1007.18
2022-08-26T11:06:17.923Z,1007.15
2022-08-26T11:07:17.911Z,1007.10
2022-08-26T11:08:17.901Z,1007.10
2022-08-26T11:09:17.911Z,1007.11
2022-08-26T11:10:18.879Z,1007.07
2022-08-26T11:11:18.014Z,1007.04
2022-08-26T11:12:17.860Z,1007.13
2022-08-26T11:13:18.155Z,1007.17
2022-08-26T11:14:17.867Z,1007.14
2022-08-26T11:15:18.860Z,1007.18
2022-08-26T11:16:18.867Z,1007.17
2022-08-26T11:17:17.806Z,1007.13
2022-08-26T11:18:17.810Z,1007.11
2022-08-26T11:19:17.806Z,1007.12
2022-08-26T11:20:18.773Z,1007.07
2022-08-26T11:21:17.771Z,1007.07
2022-08-26T11:22:18.758Z,1007.07
2022-08-26T11:23:17.760Z,1007.04
2022-08-26T11:24:17.898Z,1007.03
2022-08-26T11:25:18.382Z,1007.10
2022-08-26T11:26:20.383Z,1007.12
2022-08-26T11:27:18.703Z,1007.06
2022-08-26T11:28:17.735Z,1007.01
2022-08-26T11:29:17.708Z,1006.98
2022-08-26T11:30:18.584Z,1006.99
2022-08-26T11:31:17.688Z,1006.93
2022-08-26T11:32:17.656Z,1006.92
2022-08-26T11:33:17.670Z,1006.89
2022-08-26T11:34:17.631Z,1006.86
2022-08-26T11:35:17.753Z,1006.81
2022-08-26T11:36:17.612Z,1006.85
2022-08-26T11:37:17.680Z,1006.82
2022-08-26T11:38:17.597Z,1006.78
2022-08-26T11:39:17.578Z,1006.76
2022-08-26T11:40:17.629Z,1006.80
2022-08-26T11:41:17.563Z,1006.79
2022-08-26T11:42:20.180Z,1006.80
2022-08-26T11:43:17.558Z,1006.77
2022-08-26T11:44:17.541Z,1006.76
2022-08-26T11:45:18.322Z,1006.77
2022-08-26T11:46:17.631Z,1006.70
2022-08-26T11:47:17.503Z,1006.73
2022-08-26T11:48:17.486Z,1006.73
2022-08-26T11:49:18.610Z,1006.72
2022-08-26T11:50:17.464Z,1006.71
2022-08-26T11:51:17.470Z,1006.69
2022-08-26T11:52:17.438Z,1006.71
2022-08-26T11:53:17.429Z,1006.79
2022-08-26T11:54:17.626Z,1006.75
2022-08-26T11:55:19.159Z,1006.72
2022-08-26T11:56:17.933Z,1006.84
2022-08-26T11:57:17.454Z,1006.85
2022-08-26T11:58:17.383Z,1006.84
2022-08-26T11:59:17.388Z,1006.85
2022-08-26T12:00:20.926Z,1006.89
2022-08-26T12:01:18.363Z,1006.89
2022-08-26T12:02:17.719Z,1006.93
2022-08-26T12:03:17.446Z,1006.93
2022-08-26T12:04:17.536Z,1006.95
2022-08-26T12:05:17.865Z,1007.03
2022-08-26T12:06:17.453Z,1007.01